createdAt,value
2023-04-13T05:21:20.487Z,3.60
2023-04-13T05:23:55.226Z,3.10
2023-04-13T05:26:25.641Z,3.70
2023-04-13T05:28:54.602Z,3.30
2023-04-13T05:31:27.444Z,2.40
2023-04-13T05:33:56.755Z,2.80
2023-04-13T05:36:24.959Z,2.00
2023-04-13T05:38:53.892Z,1.90
2023-04-13T05:41:24.429Z,5.90
2023-04-13T05:43:56.199Z,2.30
2023-04-13T05:46:24.668Z,3.20
2023-04-13T05:48:53.448Z,2.10
2023-04-13T05:51:23.163Z,2.70
2023-04-13T05:53:53.853Z,2.50
2023-04-13T05:56:25.869Z,5.80
2023-04-13T05:58:54.655Z,7.20
2023-04-13T06:01:28.874Z,5.70
2023-04-13T06:03:59.303Z,4.10
2023-04-13T06:06:36.715Z,4.70
2023-04-13T06:09:12.173Z,2.50
2023-04-13T06:11:41.897Z,4.30
2023-04-13T06:14:10.746Z,4.00
2023-04-13T06:16:43.503Z,6.80
2023-04-13T06:19:13.038Z,3.10
2023-04-13T06:21:41.937Z,3.50
2023-04-13T06:24:10.325Z,3.20
2023-04-13T06:26:39.481Z,3.10
2023-04-13T06:29:10.051Z,3.20
2023-04-13T06:31:47.138Z,3.40
2023-04-13T06:34:24.925Z,3.10
2023-04-13T06:36:58.562Z,2.70
2023-04-13T06:39:50.617Z,5.70
2023-04-13T06:42:21.492Z,3.30
2023-04-13T06:45:27.021Z,2.50
2023-04-13T06:47:56.039Z,2.90
2023-04-13T06:50:25.573Z,2.80
2023-04-13T06:52:59.470Z,2.50
2023-04-13T06:55:29.271Z,4.70
2023-04-13T06:57:58.425Z,2.30
2023-04-13T07:00:30.000Z,3.60
2023-04-13T07:03:02.864Z,4.20
2023-04-13T07:05:32.235Z,4.30
2023-04-13T07:08:09.968Z,5.90
2023-04-13T07:10:41.261Z,5.90
2023-04-13T07:13:16.366Z,5.60
2023-04-13T07:15:50.107Z,4.20
2023-04-13T07:18:18.771Z,5.00
2023-04-13T07:20:47.615Z,4.60
2023-04-13T07:23:16.725Z,4.70
2023-04-13T07:25:45.497Z,5.70
2023-04-13T07:28:22.765Z,6.30
2023-04-13T07:30:52.647Z,10.50
2023-04-13T07:33:21.387Z,8.70
2023-04-13T07:36:10.731Z,6.80
2023-04-13T07:38:40.349Z,6.40
2023-04-13T07:41:08.814Z,6.70
2023-04-13T07:43:37.621Z,7.40
2023-04-13T07:46:10.029Z,8.00
2023-04-13T07:48:38.897Z,9.30
2023-04-13T07:51:18.215Z,6.40
2023-04-13T07:53:47.230Z,6.80
2023-04-13T07:56:15.773Z,7.00
2023-04-13T07:58:46.782Z,7.00
2023-04-13T08:01:15.348Z,6.40
2023-04-13T08:03:43.948Z,6.70
2023-04-13T08:06:21.320Z,7.00
2023-04-13T08:08:49.819Z,7.00
2023-04-13T08:11:17.991Z,7.60
2023-04-13T08:13:46.844Z,6.50
2023-04-13T08:16:16.450Z,8.50
2023-04-13T08:18:53.543Z,6.70
2023-04-13T08:21:22.177Z,11.10
2023-04-13T08:23:57.149Z,6.70
2023-04-13T08:26:26.571Z,10.20
2023-04-13T08:28:55.051Z,7.50
2023-04-13T08:31:24.085Z,9.00
2023-04-13T08:33:57.679Z,6.90
2023-04-13T08:36:29.059Z,8.20
2023-04-13T08:39:09.715Z,9.70
2023-04-13T08:41:42.020Z,8.10
2023-04-13T08:44:12.528Z,7.90
2023-04-13T08:46:46.843Z,13.10
2023-04-13T08:49:17.047Z,7.90
2023-04-13T08:52:21.466Z,8.80
2023-04-13T08:54:53.966Z,7.30
2023-04-13T08:57:26.547Z,7.10
2023-04-13T08:59:55.014Z,7.90
2023-04-13T09:02:33.358Z,7.90
2023-04-13T09:05:14.018Z,8.60
2023-04-13T09:07:46.669Z,11.40
2023-04-13T09:10:16.940Z,9.60
2023-04-13T09:12:52.522Z,11.50
2023-04-13T09:15:21.104Z,11.80
2023-04-13T09:18:21.539Z,7.90
2023-04-13T09:20:57.911Z,15.70
2023-04-13T09:23:27.419Z,10.00
2023-04-13T09:26:08.613Z,9.40
2023-04-13T09:28:53.267Z,12.30
2023-04-13T09:31:24.492Z,13.50
2023-04-13T09:34:09.228Z,13.30
2023-04-13T09:36:52.981Z,11.30
2023-04-13T09:39:28.294Z,19.10
2023-04-13T09:42:09.758Z,8.00
2023-04-13T09:44:41.296Z,11.30
2023-04-13T09:47:12.120Z,15.70
2023-04-13T09:49:44.082Z,10.60
2023-04-13T09:52:19.738Z,12.70
2023-04-13T09:54:58.907Z,10.60
2023-04-13T09:57:30.522Z,10.50
2023-04-13T10:00:07.510Z,10.30
2023-04-13T10:02:43.137Z,8.80
2023-04-13T10:05:12.629Z,7.10
2023-04-13T10:07:44.622Z,11.00
2023-04-13T10:10:15.486Z,12.00
2023-04-13T10:12:49.001Z,10.00
2023-04-13T10:15:37.338Z,9.10
2023-04-13T10:18:35.077Z,8.60
2023-04-13T10:21:04.172Z,9.70
2023-04-13T10:23:33.775Z,8.20
2023-04-13T10:26:03.926Z,8.70
2023-04-13T10:28:45.693Z,9.20
2023-04-13T10:31:17.010Z,12.80
2023-04-13T10:33:49.405Z,11.80
2023-04-13T10:36:18.093Z,8.20
2023-04-13T10:38:47.467Z,8.10
2023-04-13T10:41:25.584Z,8.50
2023-04-13T10:44:07.178Z,11.20
2023-04-13T10:46:36.241Z,11.10
2023-04-13T10:49:05.130Z,10.70
2023-04-13T10:51:42.252Z,10.70
2023-04-13T10:54:12.899Z,10.30
2023-04-13T10:56:41.804Z,11.90
2023-04-13T10:59:10.898Z,11.00
2023-04-13T11:01:41.427Z,10.70
2023-04-13T11:04:15.173Z,11.10
2023-04-13T11:06:48.026Z,12.80
2023-04-13T11:09:17.281Z,12.80
2023-04-13T11:11:51.601Z,13.10
2023-04-13T11:14:27.854Z,9.40
2023-04-13T11:16:58.936Z,13.40
2023-04-13T11:19:27.384Z,9.40
2023-04-13T11:21:58.179Z,13.90
2023-04-13T11:24:29.193Z,9.40
2023-04-13T11:26:57.880Z,10.10
2023-04-13T11:29:27.797Z,7.90
2023-04-13T11:31:56.706Z,11.50
2023-04-13T11:34:31.415Z,7.30
2023-04-13T11:37:01.231Z,7.00
2023-04-13T11:39:32.402Z,10.30
2023-04-13T11:42:07.267Z,9.50
2023-04-13T11:44:38.090Z,9.30
2023-04-13T11:47:07.708Z,8.30
2023-04-13T11:49:48.272Z,9.90
2023-04-13T11:52:17.600Z,9.60
2023-04-13T11:54:46.053Z,10.90
2023-04-13T11:57:14.578Z,6.10
2023-04-13T11:59:47.876Z,9.50
2023-04-13T12:02:21.822Z,9.00
2023-04-13T12:04:51.878Z,8.20
2023-04-13T12:07:21.032Z,9.10
2023-04-13T12:09:56.901Z,7.00
2023-04-13T12:17:41.351Z,15.40
2023-04-13T12:20:17.202Z,10.40
2023-04-13T12:22:55.765Z,8.10
2023-04-13T12:28:03.552Z,8.00
2023-04-13T12:30:35.365Z,7.00
2023-04-13T12:33:19.206Z,8.40
2023-04-13T12:35:47.689Z,10.10
2023-04-13T12:38:18.560Z,9.20
2023-04-13T12:40:47.260Z,9.80
2023-04-13T12:43:16.215Z,7.80
2023-04-13T12:45:45.118Z,7.70
2023-04-13T12:48:15.379Z,9.40
2023-04-13T12:50:47.326Z,7.90
2023-04-13T12:53:16.399Z,7.60
2023-04-13T12:55:44.818Z,6.70
2023-04-13T12:58:13.859Z,12.00
2023-04-13T13:00:43.492Z,11.00
2023-04-13T13:03:31.652Z,10.00
2023-04-13T13:06:01.343Z,8.60
2023-04-13T13:08:31.400Z,7.60
2023-04-13T13:11:08.481Z,8.20
2023-04-13T13:13:39.093Z,7.30
2023-04-13T13:16:08.021Z,8.80
2023-04-13T13:18:50.223Z,7.60
2023-04-13T13:21:20.185Z,10.60
2023-04-13T13:23:48.532Z,10.30
2023-04-13T13:28:48.315Z,9.00
2023-04-13T13:31:16.588Z,7.50
2023-04-13T13:33:45.795Z,8.30
2023-04-13T13:36:14.803Z,9.60
2023-04-13T13:38:43.567Z,7.10
2023-04-13T13:41:12.617Z,6.80
2023-04-13T13:43:41.121Z,9.60
2023-04-13T13:46:11.346Z,9.00
2023-04-13T13:48:41.155Z,9.10
2023-04-13T13:51:28.497Z,11.10
2023-04-13T13:53:56.898Z,8.00
2023-04-13T13:56:25.728Z,8.30
2023-04-13T13:58:54.389Z,9.20
2023-04-13T14:01:22.810Z,10.40
2023-04-13T14:03:52.129Z,12.50
2023-04-13T14:06:20.872Z,12.70
2023-04-13T14:08:49.256Z,9.50
2023-04-13T14:11:17.530Z,10.40
2023-04-13T14:13:45.930Z,12.90
2023-04-13T14:16:19.536Z,14.90
2023-04-13T14:18:52.004Z,11.90
2023-04-13T14:21:21.768Z,14.80
2023-04-13T14:23:51.118Z,15.80
2023-04-13T14:26:19.440Z,13.10
2023-04-13T14:28:48.191Z,16.40
2023-04-13T14:31:16.883Z,17.60
2023-04-13T14:33:46.198Z,18.60
2023-04-13T14:36:16.849Z,14.90
2023-04-13T14:38:44.973Z,16.60
2023-04-13T14:41:13.098Z,15.90
2023-04-13T14:43:41.353Z,17.10
2023-04-13T14:46:15.744Z,18.90
2023-04-13T14:48:44.461Z,20.20
2023-04-13T14:51:17.367Z,23.80
2023-04-13T14:53:47.984Z,21.50
2023-04-13T14:56:16.683Z,22.50
2023-04-13T14:58:44.954Z,22.70
2023-04-13T15:01:17.889Z,22.50
2023-04-13T15:03:48.127Z,25.20
2023-04-13T15:06:16.770Z,25.90
2023-04-13T15:08:45.752Z,29.10
2023-04-13T15:11:18.935Z,33.70
2023-04-13T15:13:49.329Z,39.10
2023-04-13T15:16:18.347Z,36.10
2023-04-13T15:18:46.882Z,32.00
2023-04-13T15:21:15.737Z,34.80
2023-04-13T15:23:45.159Z,41.50
2023-04-13T15:26:20.131Z,41.90
2023-04-13T15:28:48.888Z,43.40
2023-04-13T15:31:17.320Z,45.10
2023-04-13T15:33:45.756Z,43.70
2023-04-13T15:36:15.991Z,46.20
2023-04-13T15:38:45.591Z,48.50
2023-04-13T15:41:13.759Z,54.20
2023-04-13T15:43:44.230Z,42.50
2023-04-13T15:46:12.674Z,49.90
2023-04-13T15:48:42.910Z,45.90
2023-04-13T15:51:12.381Z,51.70
2023-04-13T15:53:41.425Z,50.20
2023-04-13T15:56:10.393Z,60.60
2023-04-13T15:58:38.797Z,48.10
2023-04-13T16:01:11.034Z,57.70
2023-04-13T16:03:40.463Z,57.90
2023-04-13T16:06:09.061Z,55.40
2023-04-13T16:08:38.878Z,58.30
2023-04-13T16:11:07.825Z,59.20
2023-04-13T16:13:48.702Z,55.90
2023-04-13T16:16:23.989Z,57.30
2023-04-13T16:19:00.661Z,60.00
2023-04-13T16:21:30.474Z,52.80
2023-04-13T16:23:59.073Z,48.70
2023-04-13T16:26:27.753Z,45.70
2023-04-13T16:28:56.364Z,42.60
2023-04-13T16:31:24.678Z,37.40
2023-04-13T16:33:56.299Z,26.70
2023-04-13T16:36:24.664Z,33.00
2023-04-13T16:38:53.159Z,29.20
2023-04-13T16:41:21.318Z,25.60
2023-04-13T16:43:49.500Z,25.80
2023-04-13T16:46:22.608Z,26.00
2023-04-13T16:48:52.427Z,28.10
2023-04-13T16:51:20.998Z,31.40
2023-04-13T16:53:55.323Z,38.30
2023-04-13T16:56:28.955Z,38.10
2023-04-13T16:58:57.727Z,38.80
2023-04-13T17:01:27.044Z,37.20
2023-04-13T17:03:55.574Z,40.20
2023-04-13T17:06:24.186Z,36.20
2023-04-13T17:08:52.573Z,30.80
2023-04-13T17:11:23.000Z,32.00
2023-04-13T17:13:51.855Z,29.30
2023-04-13T17:16:22.916Z,29.40
2023-04-13T17:18:51.936Z,26.70
2023-04-13T17:21:20.243Z,29.40
2023-04-13T17:23:48.497Z,28.30
2023-04-13T17:26:17.336Z,28.70
2023-04-13T17:28:45.714Z,26.30
2023-04-13T17:31:14.768Z,25.10
2023-04-13T17:33:45.133Z,23.70
2023-04-13T17:36:13.585Z,24.00
2023-04-13T17:38:41.865Z,26.20
2023-04-13T17:41:11.491Z,25.90
2023-04-13T17:43:40.374Z,26.70
2023-04-13T17:46:08.999Z,25.10
2023-04-13T17:48:39.218Z,26.70
2023-04-13T17:51:13.309Z,28.50
2023-04-13T17:53:41.512Z,25.50
2023-04-13T17:56:16.008Z,20.90
2023-04-13T17:58:45.100Z,22.20
2023-04-13T18:01:13.265Z,22.90
2023-04-13T18:03:47.268Z,17.40
2023-04-13T18:06:16.003Z,18.70
2023-04-13T18:08:44.255Z,12.80
2023-04-13T18:11:12.554Z,17.00
2023-04-13T18:13:44.099Z,16.20
2023-04-13T18:16:14.502Z,17.00
2023-04-13T18:18:43.271Z,18.10
2023-04-13T18:21:19.801Z,16.10
2023-04-13T18:23:48.185Z,19.40
2023-04-13T18:26:16.770Z,21.50
2023-04-13T18:28:45.032Z,22.00
2023-04-13T18:31:13.837Z,19.60
2023-04-13T18:33:44.265Z,18.50
2023-04-13T18:36:16.675Z,20.40
2023-04-13T18:38:45.334Z,20.00
2023-04-13T18:41:13.569Z,17.80
2023-04-13T18:43:41.790Z,19.50
2023-04-13T18:46:11.376Z,19.80
2023-04-13T18:48:39.728Z,21.20
2023-04-13T18:51:10.556Z,14.70
2023-04-13T18:53:39.980Z,12.70
2023-04-13T18:56:08.098Z,15.50
2023-04-13T18:58:37.213Z,15.80
2023-04-13T19:01:16.976Z,14.00
2023-04-13T19:03:46.031Z,20.80
2023-04-13T19:06:19.030Z,17.70
2023-04-13T19:08:51.044Z,14.20
2023-04-13T19:11:20.205Z,11.30
2023-04-13T19:13:48.383Z,11.20
2023-04-13T19:16:23.790Z,11.70
2023-04-13T19:18:53.953Z,7.10
2023-04-13T19:21:24.112Z,12.60
2023-04-13T19:23:56.776Z,8.60
2023-04-13T19:26:27.466Z,8.60
2023-04-13T19:28:56.070Z,9.10
2023-04-13T19:31:24.175Z,11.00
2023-04-13T19:33:53.465Z,15.00
2023-04-13T19:36:22.741Z,10.90
2023-04-13T19:38:52.480Z,11.70
2023-04-13T19:41:21.368Z,11.00
2023-04-13T19:43:49.444Z,10.30
2023-04-13T19:46:17.668Z,12.20
2023-04-13T19:48:48.306Z,9.80
2023-04-13T19:51:16.639Z,8.40
2023-04-13T19:53:48.541Z,8.50
2023-04-13T19:56:17.599Z,9.00
2023-04-13T19:58:46.039Z,7.40
2023-04-13T20:01:16.226Z,6.40
2023-04-13T20:03:46.771Z,6.00
2023-04-13T20:06:16.254Z,5.00
2023-04-13T20:08:45.033Z,5.00
2023-04-13T20:11:17.722Z,7.10
2023-04-13T20:13:47.364Z,7.10
2023-04-13T20:16:15.791Z,8.60
2023-04-13T20:18:45.875Z,7.40
2023-04-13T20:21:14.640Z,6.00
2023-04-13T20:23:42.969Z,8.00
2023-04-13T20:26:11.399Z,6.90
2023-04-13T20:28:39.686Z,6.20
2023-04-13T20:31:08.487Z,6.70
2023-04-13T20:33:38.522Z,6.80
2023-04-13T20:36:06.875Z,8.20
2023-04-13T20:38:36.549Z,9.60
2023-04-13T20:41:04.873Z,10.20
2023-04-13T20:43:33.390Z,7.50
2023-04-13T20:46:01.817Z,7.60
2023-04-13T20:51:10.069Z,6.70
2023-04-13T20:53:38.865Z,5.90
2023-04-13T20:56:07.867Z,6.40
2023-04-13T20:58:37.682Z,4.90
2023-04-13T21:01:05.888Z,5.80
2023-04-13T21:03:38.864Z,6.50
2023-04-13T21:06:08.053Z,5.70
2023-04-13T21:08:36.558Z,5.10
2023-04-13T21:11:04.837Z,6.20
2023-04-13T21:13:33.622Z,4.90
2023-04-13T21:16:01.909Z,7.20
2023-04-13T21:18:42.338Z,5.90
2023-04-13T21:21:13.288Z,5.20
2023-04-13T21:23:41.485Z,5.80
2023-04-13T21:26:13.530Z,7.80
2023-04-13T21:28:42.185Z,5.70
2023-04-13T21:31:10.300Z,5.50
2023-04-13T21:33:41.540Z,5.90
2023-04-13T21:38:41.784Z,9.80
2023-04-13T21:41:17.096Z,6.10
2023-04-13T21:43:45.416Z,6.20
2023-04-13T21:46:14.872Z,7.10
2023-04-13T21:48:43.530Z,7.30
2023-04-13T21:51:11.800Z,9.90
2023-04-13T21:53:40.943Z,7.80
2023-04-13T21:56:09.277Z,10.50
2023-04-13T21:58:43.094Z,13.50
2023-04-13T22:01:11.882Z,12.40
2023-04-13T22:03:46.845Z,8.90
2023-04-13T22:06:15.694Z,10.20
2023-04-13T22:08:48.891Z,8.60
2023-04-13T22:11:17.077Z,9.30
2023-04-13T22:13:45.250Z,11.70
2023-04-13T22:16:14.809Z,8.80
2023-04-13T22:18:44.012Z,9.60
2023-04-13T22:21:12.480Z,9.30
2023-04-13T22:23:43.669Z,9.50
2023-04-13T22:26:12.080Z,10.70
2023-04-13T22:28:40.625Z,9.00
2023-04-13T22:31:13.170Z,10.20
2023-04-13T22:33:42.255Z,8.30
2023-04-13T22:36:19.637Z,12.40
2023-04-13T22:38:48.261Z,12.10
2023-04-13T22:41:17.118Z,10.20
2023-04-13T22:43:45.293Z,13.20
2023-04-13T22:46:14.409Z,14.80
2023-04-13T22:48:42.978Z,12.80
2023-04-13T22:51:11.207Z,9.40
2023-04-13T22:53:39.334Z,12.80
2023-04-13T22:56:08.434Z,12.10
2023-04-13T22:58:37.228Z,12.60
2023-04-13T23:01:06.122Z,13.70
2023-04-13T23:03:36.740Z,10.70
2023-04-13T23:06:05.957Z,12.20
2023-04-13T23:08:39.861Z,11.40
2023-04-13T23:11:09.575Z,10.90
2023-04-13T23:13:37.711Z,12.80
2023-04-13T23:16:11.719Z,10.60
2023-04-13T23:18:42.835Z,13.60
2023-04-13T23:21:12.225Z,12.20
2023-04-13T23:23:40.559Z,13.40
2023-04-13T23:26:10.020Z,13.60
2023-04-13T23:28:38.599Z,14.60
2023-04-13T23:31:07.283Z,16.60
2023-04-13T23:33:36.860Z,14.80
2023-04-13T23:36:05.879Z,14.80
2023-04-13T23:38:36.489Z,14.40
2023-04-13T23:41:05.928Z,12.80
2023-04-13T23:43:34.443Z,13.40
2023-04-13T23:46:03.127Z,13.30
2023-04-13T23:48:32.014Z,15.20
2023-04-13T23:51:00.065Z,15.10
2023-04-13T23:53:29.134Z,15.80
2023-04-13T23:55:57.352Z,16.10
2023-04-13T23:58:25.793Z,12.50
